Terminal Aerodrome Forecast
Issued by NWS Sioux Falls, SD

Home | Current Version | Previous Version | Text Only | Print | Product List | Glossary On
Versions: 1 2 3 4 5 6 7 8 9 10 11 12
000
FTUS43 KFSD 020500
TAFHON
TAF
KHON 020538Z 0206/0306 16006KT P6SM BKN120
     FM021530 17013KT P6SM SCT050
     FM030000 12009KT P6SM SCT250=

USA.gov is the U.S. government's official web portal to all federal, state and local government web resources and services.